createdAt,value
2019-04-21T00:00:54.286Z,9.30
2019-04-21T00:03:25.785Z,9.93
2019-04-21T00:06:09.457Z,10.47
2019-04-21T00:08:38.961Z,11.50
2019-04-21T00:11:09.667Z,12.17
2019-04-21T00:13:32.966Z,13.27
2019-04-21T00:15:54.062Z,13.10
2019-04-21T00:18:47.673Z,14.63
2019-04-21T00:21:17.542Z,15.03
2019-04-21T00:23:58.469Z,15.77
2019-04-21T00:26:29.079Z,14.87
2019-04-21T00:29:04.012Z,14.50
2019-04-21T00:31:25.410Z,14.43
2019-04-21T00:33:41.635Z,15.60
2019-04-21T00:36:16.715Z,15.50
2019-04-21T00:39:09.898Z,16.10
2019-04-21T00:41:30.783Z,15.47
2019-04-21T00:43:49.045Z,14.40
2019-04-21T00:46:26.634Z,16.17
2019-04-21T00:49:00.350Z,15.87
2019-04-21T00:51:40.203Z,14.40
2019-04-21T00:54:04.073Z,13.30
2019-04-21T00:56:28.832Z,12.73
2019-04-21T00:58:59.318Z,12.83
2019-04-21T01:01:27.516Z,12.83
2019-04-21T01:04:04.845Z,11.70
2019-04-21T01:06:29.163Z,12.03
2019-04-21T01:09:00.901Z,11.73
2019-04-21T01:11:23.841Z,12.43
2019-04-21T01:13:58.015Z,13.77
2019-04-21T01:16:37.421Z,13.20
2019-04-21T01:19:00.455Z,13.73
2019-04-21T01:21:14.103Z,12.20
2019-04-21T01:23:38.158Z,12.73
2019-04-21T01:26:18.426Z,12.80
2019-04-21T01:28:50.482Z,11.90
2019-04-21T01:31:25.820Z,11.67
2019-04-21T01:33:57.695Z,11.83
2019-04-21T01:36:24.458Z,12.03
2019-04-21T01:38:59.030Z,11.93
2019-04-21T01:41:29.344Z,12.63
2019-04-21T01:43:49.066Z,12.40
2019-04-21T01:46:19.622Z,11.93
2019-04-21T01:48:51.805Z,12.20
2019-04-21T01:51:24.331Z,14.90
2019-04-21T01:54:18.504Z,12.53
2019-04-21T01:56:51.277Z,13.27
2019-04-21T01:59:14.433Z,14.30
2019-04-21T02:02:02.324Z,13.93
2019-04-21T02:04:34.703Z,13.43
2019-04-21T02:06:59.909Z,12.23
2019-04-21T02:09:29.282Z,13.47
2019-04-21T02:12:05.841Z,13.10
2019-04-21T02:14:40.947Z,13.03
2019-04-21T02:16:59.494Z,14.10
2019-04-21T02:19:26.469Z,14.70
2019-04-21T02:21:51.411Z,14.50
2019-04-21T02:24:38.693Z,14.40
2019-04-21T02:26:59.544Z,14.83
2019-04-21T02:29:34.433Z,15.03
2019-04-21T02:32:11.217Z,15.07
2019-04-21T02:34:43.027Z,13.90
2019-04-21T02:39:56.765Z,11.90
2019-04-21T02:42:01.738Z,10.77
2019-04-21T02:46:56.082Z,10.10
2019-04-21T02:49:45.172Z,10.47
2019-04-21T02:52:14.300Z,10.20
2019-04-21T02:54:49.802Z,10.40
2019-04-21T02:57:08.633Z,9.53
2019-04-21T03:00:25.079Z,8.80
2019-04-21T03:02:48.979Z,8.93
2019-04-21T03:05:42.884Z,8.63
2019-04-21T03:10:38.618Z,8.83
2019-04-21T03:13:11.551Z,8.63
2019-04-21T03:15:56.124Z,8.60
2019-04-21T03:18:06.353Z,9.17
2019-04-21T03:20:38.428Z,9.33
2019-04-21T03:23:13.397Z,9.03
2019-04-21T03:28:22.570Z,8.70
2019-04-21T03:31:02.558Z,8.50
2019-04-21T03:33:46.986Z,9.30
2019-04-21T03:40:26.168Z,10.20
2019-04-21T03:42:57.758Z,9.63
2019-04-21T03:45:36.848Z,10.60
2019-04-21T03:50:27.402Z,12.47
2019-04-21T03:53:06.999Z,12.17
2019-04-21T04:03:35.165Z,16.67
2019-04-21T04:09:01.490Z,17.17
2019-04-21T04:11:19.664Z,14.63
2019-04-21T04:13:47.826Z,15.50
2019-04-21T04:16:12.009Z,17.63
2019-04-21T04:18:46.122Z,16.93
2019-04-21T04:21:12.327Z,15.93
2019-04-21T04:23:51.374Z,17.20
2019-04-21T04:26:09.070Z,15.17
2019-04-21T04:31:15.375Z,13.90
2019-04-21T04:36:10.938Z,12.97
2019-04-21T04:38:41.617Z,13.57
2019-04-21T04:41:41.997Z,14.20
2019-04-21T04:44:07.132Z,15.07
2019-04-21T04:46:33.382Z,19.13
2019-04-21T04:49:08.129Z,16.60
2019-04-21T04:52:02.639Z,18.50
2019-04-21T04:56:29.112Z,20.43
2019-04-21T05:01:34.570Z,22.30
2019-04-21T05:03:56.665Z,20.67
2019-04-21T05:09:07.808Z,20.67
2019-04-21T05:14:03.334Z,16.87
2019-04-21T05:19:06.365Z,17.23
2019-04-21T05:21:30.283Z,16.10
2019-04-21T05:23:44.064Z,14.27
2019-04-21T05:26:10.894Z,14.93
2019-04-21T05:28:37.347Z,15.23
2019-04-21T05:31:25.454Z,13.03
2019-04-21T05:33:58.869Z,13.47
2019-04-21T05:36:50.535Z,14.47
2019-04-21T05:39:24.793Z,14.00
2019-04-21T05:41:47.459Z,14.47
2019-04-21T05:44:35.410Z,13.40
2019-04-21T05:47:11.214Z,12.53
2019-04-21T05:50:00.996Z,12.77
2019-04-21T05:52:27.830Z,13.73
2019-04-21T05:55:09.556Z,11.00
2019-04-21T05:57:33.500Z,11.13
2019-04-21T06:00:06.668Z,10.57
2019-04-21T06:02:40.106Z,11.60
2019-04-21T06:07:47.464Z,10.80
2019-04-21T06:10:08.865Z,11.43
2019-04-21T06:12:35.730Z,11.53
2019-04-21T06:15:19.707Z,11.37
2019-04-21T06:17:37.512Z,12.40
2019-04-21T06:20:05.630Z,11.40
2019-04-21T06:22:30.961Z,11.37
2019-04-21T06:25:31.156Z,12.97
2019-04-21T06:27:35.948Z,13.10
2019-04-21T06:30:01.922Z,14.17
2019-04-21T06:35:28.794Z,13.87
2019-04-21T06:37:43.546Z,13.73
2019-04-21T06:40:15.507Z,14.77
2019-04-21T06:42:34.087Z,13.77
2019-04-21T06:45:06.202Z,14.27
2019-04-21T06:50:04.634Z,15.40
2019-04-21T06:57:34.818Z,11.67
2019-04-21T07:00:03.171Z,12.67
2019-04-21T07:05:03.995Z,13.00
2019-04-21T07:07:27.952Z,13.67
2019-04-21T07:10:01.403Z,13.33
2019-04-21T07:12:28.608Z,14.23
2019-04-21T07:15:01.990Z,13.00
2019-04-21T07:17:30.637Z,12.63
2019-04-21T07:20:02.366Z,12.57
2019-04-21T07:22:32.398Z,11.43
2019-04-21T07:24:56.043Z,11.17
2019-04-21T07:27:30.178Z,12.57
2019-04-21T07:29:59.555Z,12.00
2019-04-21T07:32:26.777Z,12.50
2019-04-21T07:34:57.550Z,11.17
2019-04-21T07:37:24.006Z,11.10
2019-04-21T07:39:52.751Z,11.23
2019-04-21T07:42:18.499Z,11.37
2019-04-21T07:44:46.369Z,10.30
2019-04-21T07:47:23.401Z,10.13
2019-04-21T07:50:03.390Z,10.03
2019-04-21T07:52:53.371Z,9.73
2019-04-21T07:57:39.458Z,9.83
2019-04-21T08:02:51.172Z,10.10
2019-04-21T08:05:20.500Z,10.30
2019-04-21T08:07:55.822Z,9.80
2019-04-21T08:10:14.469Z,9.50
2019-04-21T08:12:41.902Z,8.33
2019-04-21T08:15:22.611Z,8.27
2019-04-21T08:17:41.525Z,8.47
2019-04-21T08:20:15.686Z,8.83
2019-04-21T08:22:46.536Z,8.80
2019-04-21T08:25:08.804Z,8.43
2019-04-21T08:27:50.555Z,8.40
2019-04-21T08:30:17.882Z,9.23
2019-04-21T08:33:04.380Z,8.87
2019-04-21T08:37:39.609Z,8.70
2019-04-21T08:42:39.963Z,8.00
2019-04-21T08:45:20.408Z,7.23
2019-04-21T08:47:42.636Z,7.00
2019-04-21T08:50:13.750Z,6.27
2019-04-21T08:55:22.444Z,7.17
2019-04-21T08:58:25.710Z,7.87
2019-04-21T09:01:06.626Z,7.03
2019-04-21T09:03:49.516Z,6.53
2019-04-21T09:06:27.386Z,6.40
2019-04-21T09:08:46.009Z,6.50
2019-04-21T09:11:12.658Z,7.23
2019-04-21T09:13:41.796Z,7.53
2019-04-21T09:16:22.035Z,6.60
2019-04-21T09:18:45.656Z,6.60
2019-04-21T09:21:28.561Z,6.30
2019-04-21T09:23:53.963Z,6.27
2019-04-21T09:26:26.330Z,5.60
2019-04-21T09:28:46.619Z,5.47
2019-04-21T09:31:05.319Z,5.20
2019-04-21T09:33:37.684Z,5.80
2019-04-21T09:36:04.996Z,5.50
2019-04-21T09:38:37.165Z,5.23
2019-04-21T09:41:00.498Z,5.93
2019-04-21T09:43:36.500Z,5.17
2019-04-21T09:45:58.890Z,4.90
2019-04-21T09:48:28.114Z,5.10
2019-04-21T09:50:57.368Z,4.80
2019-04-21T09:53:32.988Z,4.73
2019-04-21T09:56:00.950Z,4.77
2019-04-21T09:58:32.927Z,5.20
2019-04-21T10:01:06.189Z,5.20
2019-04-21T10:03:23.206Z,5.07
2019-04-21T10:05:51.987Z,5.37
2019-04-21T10:08:20.208Z,4.90
2019-04-21T10:10:49.070Z,5.50
2019-04-21T10:13:17.864Z,5.57
2019-04-21T10:15:48.431Z,5.13
2019-04-21T10:18:19.485Z,5.10
2019-04-21T10:20:47.202Z,5.23
2019-04-21T10:23:15.629Z,5.03
2019-04-21T10:25:43.534Z,5.40
2019-04-21T10:28:12.852Z,4.83
2019-04-21T10:30:40.826Z,5.40
2019-04-21T10:33:10.708Z,5.40
2019-04-21T10:35:39.385Z,5.20
2019-04-21T10:38:20.040Z,5.30
2019-04-21T10:40:37.333Z,5.47
2019-04-21T10:43:08.665Z,5.73
2019-04-21T10:45:36.880Z,5.10
2019-04-21T10:48:05.178Z,5.67
2019-04-21T10:50:32.895Z,5.90
2019-04-21T10:53:06.923Z,4.97
2019-04-21T10:55:48.640Z,5.57
2019-04-21T10:58:10.633Z,6.00
2019-04-21T11:00:39.843Z,5.77
2019-04-21T11:03:26.842Z,5.47
2019-04-21T11:05:55.156Z,6.10
2019-04-21T11:08:29.846Z,6.20
2019-04-21T11:10:53.993Z,6.30
2019-04-21T11:13:22.940Z,5.77
2019-04-21T11:15:50.927Z,6.00
2019-04-21T11:18:19.826Z,6.70
2019-04-21T11:20:48.933Z,5.87
2019-04-21T11:23:19.191Z,5.70
2019-04-21T11:25:48.188Z,6.50
2019-04-21T11:28:17.047Z,6.47
2019-04-21T11:30:48.688Z,5.70
2019-04-21T11:33:17.587Z,6.30
2019-04-21T11:35:47.199Z,6.47
2019-04-21T11:38:23.626Z,5.63
2019-04-21T11:40:49.780Z,6.07
2019-04-21T11:43:17.830Z,5.87
2019-04-21T11:45:46.318Z,5.77
2019-04-21T11:48:24.222Z,5.47
2019-04-21T11:50:53.111Z,6.27
2019-04-21T11:53:21.101Z,5.60
2019-04-21T11:55:52.003Z,5.90
2019-04-21T11:58:19.540Z,5.73
2019-04-21T12:00:52.193Z,5.57
2019-04-21T12:03:20.516Z,5.70
2019-04-21T12:05:49.433Z,5.50
2019-04-21T12:08:26.520Z,5.97
2019-04-21T12:10:47.279Z,6.00
2019-04-21T12:13:16.152Z,5.43
2019-04-21T12:15:45.124Z,5.80
2019-04-21T12:18:13.953Z,6.17
2019-04-21T12:20:43.130Z,5.83
2019-04-21T12:23:12.103Z,5.87
2019-04-21T12:25:45.284Z,6.30
2019-04-21T12:28:14.296Z,5.80
2019-04-21T12:30:43.426Z,6.00
2019-04-21T12:33:18.168Z,6.07
2019-04-21T12:35:46.183Z,5.90
2019-04-21T12:38:17.478Z,5.80
2019-04-21T12:40:46.541Z,5.73
2019-04-21T12:43:14.722Z,5.70
2019-04-21T12:45:44.095Z,6.23
2019-04-21T12:48:11.945Z,6.27
2019-04-21T12:50:39.664Z,6.37
2019-04-21T12:53:07.529Z,6.50
2019-04-21T12:55:40.619Z,6.57
2019-04-21T12:58:05.545Z,5.77
2019-04-21T13:00:33.453Z,6.33
2019-04-21T13:03:01.646Z,6.47
2019-04-21T13:05:29.617Z,6.03
2019-04-21T13:07:57.483Z,5.77
2019-04-21T13:10:26.401Z,5.63
2019-04-21T13:12:54.278Z,6.30
2019-04-21T13:15:22.268Z,6.57
2019-04-21T13:17:50.261Z,6.17
2019-04-21T13:20:19.148Z,6.60
2019-04-21T13:22:48.090Z,6.03
2019-04-21T13:25:16.167Z,6.23
2019-04-21T13:27:45.190Z,6.27
2019-04-21T13:30:14.670Z,5.83
2019-04-21T13:32:43.012Z,6.00
2019-04-21T13:35:11.065Z,5.93
2019-04-21T13:37:39.601Z,6.10
2019-04-21T13:40:45.094Z,6.37
2019-04-21T13:43:02.102Z,6.40
2019-04-21T13:45:27.823Z,5.43
2019-04-21T13:47:56.731Z,6.40
2019-04-21T13:50:25.602Z,5.80
2019-04-21T13:52:54.343Z,5.60
2019-04-21T13:55:23.434Z,5.20
2019-04-21T13:57:52.539Z,5.70
2019-04-21T14:00:21.517Z,5.83
2019-04-21T14:02:49.360Z,5.77
2019-04-21T14:05:18.141Z,6.07
2019-04-21T14:07:46.207Z,5.73
2019-04-21T14:10:16.129Z,6.27
2019-04-21T14:12:44.602Z,5.83
2019-04-21T14:15:12.709Z,5.97
2019-04-21T14:17:40.421Z,6.03
2019-04-21T14:20:09.501Z,5.67
2019-04-21T14:22:38.092Z,5.73
2019-04-21T14:25:07.845Z,5.43
2019-04-21T14:27:36.366Z,5.70
2019-04-21T14:30:08.407Z,5.47
2019-04-21T14:32:36.276Z,6.20
2019-04-21T14:35:04.885Z,5.53
2019-04-21T14:37:32.865Z,5.87
2019-04-21T14:40:06.978Z,5.97
2019-04-21T14:42:33.916Z,5.63
2019-04-21T14:45:03.099Z,6.13
2019-04-21T14:47:51.323Z,5.97
2019-04-21T14:50:44.505Z,6.13
2019-04-21T14:53:16.094Z,6.27
2019-04-21T14:55:45.751Z,6.50
2019-04-21T14:58:14.932Z,6.80
2019-04-21T15:01:00.252Z,5.97
2019-04-21T15:03:28.042Z,6.20
2019-04-21T15:05:55.808Z,7.00
2019-04-21T15:08:24.843Z,6.00
2019-04-21T15:10:52.845Z,7.30
2019-04-21T15:13:21.798Z,6.33
2019-04-21T15:15:49.925Z,6.97
2019-04-21T15:18:18.778Z,6.90
2019-04-21T15:20:48.615Z,6.90
2019-04-21T15:23:16.024Z,6.70
2019-04-21T15:25:44.016Z,7.07
2019-04-21T15:28:11.810Z,7.23
2019-04-21T15:30:40.787Z,6.90
2019-04-21T15:33:08.628Z,6.90
2019-04-21T15:35:37.339Z,7.37
2019-04-21T15:38:05.014Z,7.00
2019-04-21T15:40:41.833Z,6.90
2019-04-21T15:43:02.459Z,6.63
2019-04-21T15:45:30.613Z,7.00
2019-04-21T15:47:58.412Z,7.13
2019-04-21T15:50:26.490Z,7.03
2019-04-21T15:52:55.895Z,7.23
2019-04-21T15:55:41.445Z,6.40
2019-04-21T15:58:22.918Z,6.80
2019-04-21T16:00:56.640Z,7.40
2019-04-21T16:03:24.803Z,7.10
2019-04-21T16:05:53.671Z,7.43
2019-04-21T16:08:22.026Z,8.20
2019-04-21T16:10:56.222Z,7.33
2019-04-21T16:13:19.414Z,7.70
2019-04-21T16:15:48.448Z,7.77
2019-04-21T16:18:16.277Z,9.17
2019-04-21T16:20:43.976Z,9.50
2019-04-21T16:23:12.819Z,9.40
2019-04-21T16:25:44.324Z,9.13
2019-04-21T16:28:13.340Z,9.50
2019-04-21T16:30:42.429Z,9.93
2019-04-21T16:33:10.416Z,11.10
2019-04-21T16:35:39.947Z,11.00
2019-04-21T16:38:07.896Z,10.80
2019-04-21T16:40:48.378Z,11.40
2019-04-21T16:43:05.964Z,12.63
2019-04-21T16:45:36.742Z,11.83
2019-04-21T16:48:05.352Z,11.70
2019-04-21T16:50:34.642Z,12.30
2019-04-21T16:53:08.380Z,12.50
2019-04-21T16:55:41.481Z,11.23
2019-04-21T16:58:28.926Z,11.10
2019-04-21T17:01:03.243Z,11.70
2019-04-21T17:03:30.662Z,12.23
2019-04-21T17:06:00.496Z,12.20
2019-04-21T17:08:28.850Z,12.40
2019-04-21T17:11:06.251Z,12.50
2019-04-21T17:13:27.214Z,14.10
2019-04-21T17:16:15.338Z,13.93
2019-04-21T17:18:43.495Z,13.97
2019-04-21T17:20:59.684Z,14.40
2019-04-21T17:23:25.287Z,15.10
2019-04-21T17:25:53.178Z,14.77
2019-04-21T17:28:21.625Z,15.13
2019-04-21T17:30:50.430Z,13.93
2019-04-21T17:33:22.670Z,14.23
2019-04-21T17:35:49.164Z,14.20
2019-04-21T17:38:18.576Z,13.17
2019-04-21T17:40:47.480Z,13.47
2019-04-21T17:43:17.981Z,14.10
2019-04-21T17:45:46.568Z,13.57
2019-04-21T17:48:16.386Z,13.27
2019-04-21T17:51:15.541Z,11.93
2019-04-21T17:54:19.870Z,12.70
2019-04-21T17:59:43.397Z,12.23
2019-04-21T18:02:05.074Z,12.77
2019-04-21T18:04:25.903Z,12.33
2019-04-21T18:07:26.180Z,12.13
2019-04-21T18:10:02.115Z,12.73
2019-04-21T18:12:24.990Z,11.40
2019-04-21T18:14:51.573Z,12.20
2019-04-21T18:17:10.731Z,11.27
2019-04-21T18:19:41.779Z,10.57
2019-04-21T18:22:47.936Z,11.13
2019-04-21T18:25:28.078Z,10.37
2019-04-21T18:27:48.518Z,11.00
2019-04-21T18:30:46.801Z,9.20
2019-04-21T18:33:22.294Z,10.23
2019-04-21T18:36:05.088Z,9.73
2019-04-21T18:39:00.164Z,9.67
2019-04-21T18:41:13.355Z,10.13
2019-04-21T18:44:13.348Z,9.87
2019-04-21T18:46:53.916Z,9.93
2019-04-21T18:49:06.540Z,10.23
2019-04-21T18:52:01.210Z,10.43
2019-04-21T18:54:41.313Z,9.93
2019-04-21T18:57:04.496Z,9.67
2019-04-21T18:59:31.337Z,10.93
2019-04-21T19:02:02.436Z,11.53
2019-04-21T19:04:28.579Z,12.00
2019-04-21T19:07:08.144Z,11.43
2019-04-21T19:10:00.751Z,11.70
2019-04-21T19:12:12.749Z,12.03
2019-04-21T19:14:43.141Z,12.17
2019-04-21T19:17:38.380Z,12.20
2019-04-21T19:20:04.693Z,12.73
2019-04-21T19:22:15.584Z,13.63
2019-04-21T19:24:41.234Z,13.40
2019-04-21T19:27:11.975Z,13.40
2019-04-21T19:29:45.513Z,13.70
2019-04-21T19:32:08.693Z,14.07
2019-04-21T19:34:25.966Z,15.03
2019-04-21T19:36:57.641Z,14.63
2019-04-21T19:39:36.078Z,15.00
2019-04-21T19:42:00.554Z,14.70
2019-04-21T19:44:37.975Z,14.70
2019-04-21T19:47:08.418Z,15.37
2019-04-21T19:49:38.283Z,15.17
2019-04-21T19:51:56.532Z,15.53
2019-04-21T19:54:25.205Z,16.70
2019-04-21T19:56:47.096Z,16.57
2019-04-21T19:59:20.903Z,15.90
2019-04-21T20:01:46.780Z,16.37
2019-04-21T20:04:14.856Z,16.63
2019-04-21T20:06:52.033Z,17.03
2019-04-21T20:09:32.525Z,17.87
2019-04-21T20:12:00.890Z,18.33
2019-04-21T20:14:49.271Z,16.80
2019-04-21T20:16:57.854Z,16.53
2019-04-21T20:19:13.887Z,16.60
2019-04-21T20:21:41.294Z,16.93
2019-04-21T20:24:14.054Z,17.30
2019-04-21T20:26:42.507Z,17.37
2019-04-21T20:29:20.856Z,18.00
2019-04-21T20:31:54.633Z,19.07
2019-04-21T20:34:30.097Z,17.87
2019-04-21T20:37:00.353Z,17.47
2019-04-21T20:39:15.182Z,17.47
2019-04-21T20:41:49.638Z,16.67
2019-04-21T20:44:27.766Z,18.27
2019-04-21T20:46:52.910Z,19.03
2019-04-21T20:49:20.325Z,19.47
2019-04-21T20:51:54.405Z,19.20
2019-04-21T20:54:27.167Z,19.37
2019-04-21T20:56:51.502Z,19.77
2019-04-21T20:59:19.545Z,20.10
2019-04-21T21:01:48.962Z,20.13
2019-04-21T21:04:17.457Z,19.90
2019-04-21T21:06:46.938Z,19.40
2019-04-21T21:09:22.204Z,19.83
2019-04-21T21:11:56.790Z,20.13
2019-04-21T21:14:16.003Z,21.33
2019-04-21T21:16:51.809Z,20.97
2019-04-21T21:19:20.997Z,22.13
2019-04-21T21:21:44.181Z,21.63
2019-04-21T21:24:21.804Z,22.33
2019-04-21T21:26:49.896Z,23.97
2019-04-21T21:29:21.330Z,26.60
2019-04-21T21:31:47.489Z,24.63
2019-04-21T21:34:21.183Z,25.80
2019-04-21T21:36:51.071Z,25.60
2019-04-21T21:39:18.406Z,24.90
2019-04-21T21:41:35.911Z,24.57
2019-04-21T21:44:05.803Z,23.60
2019-04-21T21:46:45.708Z,24.03
2019-04-21T21:49:07.471Z,23.53
2019-04-21T21:51:39.260Z,25.07
2019-04-21T21:53:57.089Z,25.77
2019-04-21T21:56:25.071Z,24.47
2019-04-21T21:58:53.824Z,25.50
2019-04-21T22:01:31.864Z,24.93
2019-04-21T22:04:01.676Z,26.53
2019-04-21T22:06:23.932Z,27.03
2019-04-21T22:08:52.178Z,27.53
2019-04-21T22:11:20.142Z,27.63
2019-04-21T22:13:55.681Z,27.20
2019-04-21T22:16:19.613Z,27.23
2019-04-21T22:19:08.015Z,26.23
2019-04-21T22:21:38.564Z,27.00
2019-04-21T22:23:57.074Z,26.63
2019-04-21T22:26:15.764Z,28.07
2019-04-21T22:28:43.616Z,26.53
2019-04-21T22:31:15.241Z,27.10
2019-04-21T22:33:49.412Z,27.23
2019-04-21T22:36:29.199Z,26.53
2019-04-21T22:38:51.909Z,26.90
2019-04-21T22:41:18.902Z,27.87
2019-04-21T22:43:43.737Z,27.27
2019-04-21T22:46:10.665Z,27.13
2019-04-21T22:48:45.356Z,25.60
2019-04-21T22:51:20.548Z,26.87
2019-04-21T22:53:46.540Z,27.60
2019-04-21T22:56:14.945Z,28.13
2019-04-21T22:58:42.607Z,28.97
2019-04-21T23:01:09.623Z,27.83
2019-04-21T23:03:42.570Z,26.93
2019-04-21T23:06:16.223Z,25.17
2019-04-21T23:08:41.716Z,24.30
2019-04-21T23:11:11.887Z,26.90
2019-04-21T23:13:38.638Z,24.47
2019-04-21T23:16:07.987Z,24.77
2019-04-21T23:18:47.992Z,27.37
2019-04-21T23:21:16.360Z,26.03
2019-04-21T23:23:54.647Z,25.33
2019-04-21T23:26:23.761Z,26.87
2019-04-21T23:28:57.116Z,26.60
2019-04-21T23:31:27.227Z,25.20
2019-04-21T23:33:32.883Z,26.27
2019-04-21T23:36:08.506Z,24.80
2019-04-21T23:38:37.528Z,26.70
2019-04-21T23:41:02.383Z,25.83
2019-04-21T23:43:32.745Z,27.63
2019-04-21T23:46:04.219Z,27.20
2019-04-21T23:48:39.056Z,28.27
2019-04-21T23:51:13.884Z,27.30
2019-04-21T23:53:29.075Z,26.87
2019-04-21T23:56:01.225Z,27.13
2019-04-21T23:58:31.746Z,27.67
